Time;durP1;ratioP1;P1;durP2;ratioP2;P2;SDS_P1;SDS_P2;PMS_P1;PMS_P2;Temp;Humidity;BMP_temperature;BMP_pressure;BME280_temperature;BME280_humidity;BME280_pressure;Samples;Min_cycle;Max_cycle;Signal;HPM_P1;HPM_P2
2022/03/03 00:02:54;;;;;;;34.55;17.58;;;;;;;;;;10359140;28;20033;-75
2022/03/03 00:07:55;;;;;;;30.13;15.73;;;;;;;;;;10318514;28;20034;-74
2022/03/03 00:12:55;;;;;;;30.75;15.65;;;;;;;;;;10318390;28;20656;-74
2022/03/03 00:17:55;;;;;;;28.52;15.10;;;;;;;;;;10337304;23;20141;-74
2022/03/03 00:22:56;;;;;;;28.08;16.23;;;;;;;;;;10318168;28;20409;-75
2022/03/03 00:27:56;;;;;;;25.33;15.13;;;;;;;;;;10319220;28;20826;-74
2022/03/03 00:32:56;;;;;;;29.60;15.43;;;;;;;;;;10316980;28;20269;-73
2022/03/03 00:37:56;;;;;;;26.55;16.08;;;;;;;;;;10318147;28;20117;-74
2022/03/03 00:42:57;;;;;;;27.30;15.90;;;;;;;;;;10318863;28;20049;-74
2022/03/03 00:47:57;;;;;;;25.83;13.23;;;;;;;;;;10317011;28;20033;-73
2022/03/03 00:52:57;;;;;;;26.38;14.27;;;;;;;;;;10317496;28;20120;-74
2022/03/03 00:57:58;;;;;;;25.10;15.83;;;;;;;;;;10350315;28;20033;-74
2022/03/03 01:02:58;;;;;;;26.08;14.18;;;;;;;;;;10327357;28;20277;-74
2022/03/03 01:07:58;;;;;;;28.60;16.38;;;;;;;;;;10277013;28;20057;-74
2022/03/03 01:12:58;;;;;;;22.75;13.00;;;;;;;;;;10276993;28;20026;-74
2022/03/03 01:17:59;;;;;;;32.35;15.13;;;;;;;;;;10276798;28;20591;-77
2022/03/03 01:22:59;;;;;;;26.33;16.20;;;;;;;;;;10276285;28;20118;-75
2022/03/03 01:28:00;;;;;;;26.17;15.53;;;;;;;;;;10276903;28;20282;-74
2022/03/03 01:33:00;;;;;;;25.63;16.80;;;;;;;;;;10285433;28;20273;-74
2022/03/03 01:38:00;;;;;;;29.10;17.73;;;;;;;;;;10322883;28;20026;-73
2022/03/03 01:43:01;;;;;;;26.63;16.40;;;;;;;;;;10323934;28;20655;-73
2022/03/03 01:48:01;;;;;;;28.90;14.10;;;;;;;;;;10325290;28;20109;-73
2022/03/03 01:53:01;;;;;;;31.63;17.07;;;;;;;;;;10323804;28;20021;-75
2022/03/03 01:58:02;;;;;;;27.27;16.50;;;;;;;;;;10323613;28;20026;-75
2022/03/03 02:03:03;;;;;;;26.08;15.57;;;;;;;;;;10323142;28;20031;-77
2022/03/03 02:08:03;;;;;;;29.52;18.23;;;;;;;;;;10323250;28;20993;-74
2022/03/03 02:13:04;;;;;;;33.60;18.50;;;;;;;;;;10324350;28;20034;-74
2022/03/03 02:18:04;;;;;;;28.63;19.27;;;;;;;;;;10322907;28;20437;-78
2022/03/03 02:23:04;;;;;;;29.87;18.80;;;;;;;;;;10323103;28;20474;-78
2022/03/03 02:28:05;;;;;;;38.03;18.52;;;;;;;;;;10322461;28;20646;-73
2022/03/03 02:33:05;;;;;;;38.63;18.10;;;;;;;;;;10323547;28;20027;-75
2022/03/03 02:38:05;;;;;;;28.35;15.85;;;;;;;;;;10322242;28;20034;-74
2022/03/03 02:43:06;;;;;;;34.38;18.58;;;;;;;;;;10321207;28;20026;-76
2022/03/03 02:48:06;;;;;;;30.87;18.73;;;;;;;;;;10321883;28;20038;-74
2022/03/03 02:53:06;;;;;;;29.73;16.93;;;;;;;;;;10321699;28;20026;-74
2022/03/03 02:58:07;;;;;;;26.17;13.87;;;;;;;;;;10322181;28;20042;-73
2022/03/03 03:03:07;;;;;;;25.60;14.52;;;;;;;;;;10320962;28;20064;-75
2022/03/03 03:08:08;;;;;;;38.90;19.37;;;;;;;;;;10321373;28;20507;-74
2022/03/03 03:13:08;;;;;;;32.60;17.08;;;;;;;;;;10321330;28;20026;-74
2022/03/03 03:18:09;;;;;;;29.92;17.35;;;;;;;;;;10321787;28;20060;-74
2022/03/03 03:23:11;;;;;;;30.90;16.73;;;;;;;;;;10321181;28;20022;-74
2022/03/03 03:28:12;;;;;;;32.70;18.83;;;;;;;;;;10321132;28;20065;-74
2022/03/03 03:33:12;;;;;;;38.53;18.85;;;;;;;;;;10320034;28;20050;-74
2022/03/03 03:38:13;;;;;;;31.40;18.67;;;;;;;;;;10320528;28;20026;-74
2022/03/03 03:43:13;;;;;;;41.03;20.63;;;;;;;;;;10320226;28;20417;-74
2022/03/03 03:48:13;;;;;;;36.55;18.73;;;;;;;;;;10319881;28;20277;-75
2022/03/03 03:53:13;;;;;;;33.45;18.50;;;;;;;;;;10318768;28;20022;-74
2022/03/03 03:58:14;;;;;;;36.10;18.48;;;;;;;;;;10303458;28;20027;-74
2022/03/03 04:03:14;;;;;;;27.13;15.37;;;;;;;;;;10320095;28;20019;-75
2022/03/03 04:08:14;;;;;;;34.78;18.05;;;;;;;;;;10319680;28;20506;-75
2022/03/03 04:13:17;;;;;;;26.90;16.73;;;;;;;;;;10319413;28;20512;-75
2022/03/03 04:18:18;;;;;;;28.15;16.98;;;;;;;;;;10318825;28;20392;-73
2022/03/03 04:23:19;;;;;;;32.20;17.95;;;;;;;;;;10319228;28;20475;-73
2022/03/03 04:28:19;;;;;;;28.00;16.40;;;;;;;;;;10318750;28;20026;-75
2022/03/03 04:33:19;;;;;;;37.37;16.87;;;;;;;;;;10318114;28;20041;-75
2022/03/03 04:38:20;;;;;;;40.00;17.40;;;;;;;;;;10319624;28;20322;-74
2022/03/03 04:43:20;;;;;;;37.35;17.95;;;;;;;;;;10297546;28;20027;-74
2022/03/03 04:48:21;;;;;;;32.80;17.10;;;;;;;;;;10299063;28;20033;-74
2022/03/03 04:53:22;;;;;;;33.53;19.77;;;;;;;;;;10317573;28;20026;-73
2022/03/03 04:58:23;;;;;;;33.30;17.17;;;;;;;;;;10303185;28;20026;-74
2022/03/03 05:03:23;;;;;;;28.08;16.25;;;;;;;;;;10277563;28;20029;-75
2022/03/03 05:08:23;;;;;;;32.53;17.30;;;;;;;;;;10276805;28;20027;-76
2022/03/03 05:13:23;;;;;;;30.75;14.82;;;;;;;;;;10315346;28;20391;-73
2022/03/03 05:18:24;;;;;;;34.85;17.38;;;;;;;;;;10318466;28;20065;-74
2022/03/03 05:23:24;;;;;;;34.15;16.50;;;;;;;;;;10317002;28;20053;-75
2022/03/03 05:28:24;;;;;;;33.87;17.97;;;;;;;;;;10316813;28;20029;-74
2022/03/03 05:33:25;;;;;;;37.60;17.90;;;;;;;;;;10317806;28;20019;-74
2022/03/03 05:38:30;;;;;;;35.78;15.52;;;;;;;;;;10316366;28;20117;-74
2022/03/03 05:43:31;;;;;;;31.50;18.20;;;;;;;;;;10316167;28;20030;-74
2022/03/03 05:48:31;;;;;;;32.95;15.20;;;;;;;;;;10316537;28;20030;-74
2022/03/03 05:53:32;;;;;;;29.90;14.88;;;;;;;;;;10316090;28;20033;-73
2022/03/03 05:58:41;;;;;;;42.13;16.90;;;;;;;;;;10315822;28;20123;-74
2022/03/03 06:03:41;;;;;;;31.42;15.18;;;;;;;;;;10316538;28;20117;-74
2022/03/03 06:08:56;;;;;;;36.67;16.47;;;;;;;;;;10316259;28;20022;-76
2022/03/03 06:14:19;;;;;;;28.70;15.10;;;;;;;;;;10316894;28;20023;-75
2022/03/03 06:19:19;;;;;;;37.58;17.23;;;;;;;;;;10320086;28;20056;-75
2022/03/03 06:24:19;;;;;;;32.25;16.15;;;;;;;;;;10323250;28;20030;-75
2022/03/03 06:29:20;;;;;;;33.63;17.27;;;;;;;;;;10322546;28;20022;-75
2022/03/03 06:34:20;;;;;;;31.83;13.98;;;;;;;;;;10322293;28;20030;-75
2022/03/03 06:39:21;;;;;;;27.30;15.63;;;;;;;;;;10322126;28;20060;-74
2022/03/03 06:44:21;;;;;;;39.38;17.77;;;;;;;;;;10321725;28;20268;-76
2022/03/03 06:49:22;;;;;;;47.47;16.85;;;;;;;;;;10313248;28;20118;-76
2022/03/03 06:54:22;;;;;;;29.17;14.27;;;;;;;;;;10321654;28;20141;-74
2022/03/03 06:59:24;;;;;;;44.33;17.00;;;;;;;;;;10321726;28;20038;-75
2022/03/03 07:04:26;;;;;;;33.42;16.45;;;;;;;;;;10296746;28;20106;-74
2022/03/03 07:09:29;;;;;;;26.23;14.07;;;;;;;;;;10309262;28;20069;-76
2022/03/03 07:14:29;;;;;;;28.70;16.17;;;;;;;;;;10300319;28;20027;-74
2022/03/03 07:19:39;;;;;;;40.83;16.07;;;;;;;;;;10280012;28;20059;-74
2022/03/03 07:24:39;;;;;;;29.45;14.73;;;;;;;;;;10281547;28;20289;-75
2022/03/03 07:29:40;;;;;;;33.15;15.38;;;;;;;;;;10285469;28;20499;-75
2022/03/03 07:34:41;;;;;;;36.33;15.70;;;;;;;;;;10279046;28;20569;-76
2022/03/03 07:39:43;;;;;;;30.25;16.52;;;;;;;;;;10456272;28;20461;-74
2022/03/03 07:44:43;;;;;;;41.63;17.58;;;;;;;;;;10312269;28;20041;-78
2022/03/03 07:49:45;;;;;;;55.30;19.88;;;;;;;;;;10467462;28;20020;-75
2022/03/03 07:54:45;;;;;;;35.38;15.18;;;;;;;;;;10438597;28;20027;-72
2022/03/03 07:59:47;;;;;;;27.77;13.17;;;;;;;;;;10300222;28;20026;-74
2022/03/03 08:04:49;;;;;;;35.75;15.90;;;;;;;;;;10289854;28;20027;-75
2022/03/03 08:09:55;;;;;;;35.88;13.38;;;;;;;;;;10279321;28;20019;-75
2022/03/03 08:14:56;;;;;;;36.75;14.75;;;;;;;;;;10278066;28;20479;-75
2022/03/03 08:19:56;;;;;;;27.70;14.38;;;;;;;;;;10381418;28;20056;-74
2022/03/03 08:24:57;;;;;;;32.00;15.53;;;;;;;;;;10300292;28;20027;-73
2022/03/03 08:29:58;;;;;;;27.35;14.73;;;;;;;;;;10291344;28;20018;-76
2022/03/03 08:35:08;;;;;;;23.67;12.05;;;;;;;;;;10359569;28;20116;-74
2022/03/03 08:40:10;;;;;;;22.13;12.68;;;;;;;;;;10304959;28;20033;-74
2022/03/03 08:45:11;;;;;;;28.33;12.82;;;;;;;;;;10277977;28;20019;-74
2022/03/03 08:50:15;;;;;;;25.35;12.52;;;;;;;;;;10277443;28;20022;-74
2022/03/03 08:55:16;;;;;;;26.45;12.70;;;;;;;;;;10316968;28;20053;-73
2022/03/03 09:00:17;;;;;;;25.67;12.60;;;;;;;;;;10316713;28;20114;-74
2022/03/03 09:05:18;;;;;;;30.98;13.13;;;;;;;;;;10326327;28;20019;-76
2022/03/03 09:10:19;;;;;;;23.40;11.50;;;;;;;;;;10316393;28;20022;-76
2022/03/03 09:15:19;;;;;;;30.52;13.40;;;;;;;;;;10315761;28;20030;-76
2022/03/03 09:20:20;;;;;;;23.67;12.43;;;;;;;;;;10316218;28;20053;-75
2022/03/03 09:25:20;;;;;;;25.83;11.90;;;;;;;;;;10299654;28;20023;-76
2022/03/03 09:30:21;;;;;;;25.67;12.23;;;;;;;;;;10295482;28;20025;-76
2022/03/03 09:35:21;;;;;;;22.77;11.13;;;;;;;;;;10346110;28;20447;-75
2022/03/03 09:40:21;;;;;;;22.80;10.57;;;;;;;;;;10275048;28;20164;-73
2022/03/03 09:45:22;;;;;;;21.55;12.43;;;;;;;;;;10374629;28;20016;-73
2022/03/03 09:50:23;;;;;;;22.55;10.98;;;;;;;;;;10418800;28;20034;-75
2022/03/03 09:55:23;;;;;;;24.10;12.38;;;;;;;;;;10281044;28;20019;-73
2022/03/03 10:00:25;;;;;;;21.48;10.77;;;;;;;;;;10282525;28;20075;-78
2022/03/03 10:05:47;;;;;;;16.17;9.10;;;;;;;;;;10282741;28;20433;-76
2022/03/03 10:10:48;;;;;;;26.60;10.55;;;;;;;;;;10282411;28;20015;-77
2022/03/03 10:15:52;;;;;;;21.00;9.98;;;;;;;;;;10282171;28;20054;-73
2022/03/03 10:20:56;;;;;;;19.52;9.65;;;;;;;;;;10366143;28;20062;-73
2022/03/03 10:25:58;;;;;;;23.58;10.50;;;;;;;;;;10283296;28;20022;-77
2022/03/03 10:31:06;;;;;;;20.58;10.73;;;;;;;;;;10335196;28;20025;-73
2022/03/03 10:36:11;;;;;;;20.83;10.68;;;;;;;;;;10361266;28;20026;-72
2022/03/03 10:41:37;;;;;;;22.65;12.10;;;;;;;;;;10361320;28;20080;-75
2022/03/03 10:46:56;;;;;;;18.33;10.32;;;;;;;;;;10360911;28;20087;-75
2022/03/03 10:52:12;;;;;;;18.73;9.40;;;;;;;;;;10361662;28;20556;-73
2022/03/03 10:57:28;;;;;;;19.02;9.63;;;;;;;;;;10362047;28;20025;-75
2022/03/03 11:02:28;;;;;;;30.30;13.00;;;;;;;;;;10300044;28;20030;-76
2022/03/03 11:07:29;;;;;;;22.55;12.35;;;;;;;;;;10295402;28;20452;-76
2022/03/03 11:12:29;;;;;;;26.73;12.83;;;;;;;;;;10301616;28;20019;-75
2022/03/03 11:17:30;;;;;;;24.80;10.93;;;;;;;;;;10278935;28;20058;-75
2022/03/03 11:22:30;;;;;;;20.20;11.05;;;;;;;;;;10279550;28;20019;-79
2022/03/03 11:27:38;;;;;;;24.23;11.55;;;;;;;;;;10278591;28;20380;-75
2022/03/03 11:32:39;;;;;;;20.07;12.43;;;;;;;;;;10340154;28;20028;-74
2022/03/03 11:37:40;;;;;;;19.88;11.98;;;;;;;;;;10361331;28;20093;-77
2022/03/03 11:42:52;;;;;;;24.73;10.90;;;;;;;;;;10359224;28;20047;-75
2022/03/03 11:48:06;;;;;;;27.30;12.02;;;;;;;;;;10330122;28;20436;-71
2022/03/03 11:53:10;;;;;;;22.13;12.48;;;;;;;;;;10300017;28;20060;-71
2022/03/03 11:58:11;;;;;;;21.42;12.55;;;;;;;;;;10318420;28;20476;-75
2022/03/03 12:03:13;;;;;;;20.92;10.18;;;;;;;;;;10318379;28;20030;-78
2022/03/03 12:08:13;;;;;;;25.08;12.25;;;;;;;;;;10319227;28;20483;-75
2022/03/03 12:13:24;;;;;;;24.00;12.00;;;;;;;;;;10318187;28;20023;-75
2022/03/03 12:18:33;;;;;;;32.85;12.80;;;;;;;;;;10318332;28;20103;-73
2022/03/03 12:23:35;;;;;;;20.77;10.77;;;;;;;;;;10303511;28;20483;-76
2022/03/03 12:28:47;;;;;;;22.98;11.40;;;;;;;;;;10279810;28;20647;-76
2022/03/03 12:34:15;;;;;;;20.05;10.63;;;;;;;;;;10352724;28;20064;-77
2022/03/03 12:39:16;;;;;;;22.63;12.87;;;;;;;;;;10526229;28;20038;-72
2022/03/03 12:44:17;;;;;;;24.23;13.50;;;;;;;;;;10528804;28;20039;-72
2022/03/03 12:49:18;;;;;;;18.25;11.27;;;;;;;;;;10528469;28;20106;-72
2022/03/03 12:54:22;;;;;;;21.70;13.00;;;;;;;;;;10528121;28;20026;-78
2022/03/03 12:59:23;;;;;;;19.27;10.52;;;;;;;;;;10528404;28;20062;-73
2022/03/03 13:04:23;;;;;;;19.47;11.33;;;;;;;;;;10354235;28;20113;-78
2022/03/03 13:09:23;;;;;;;24.43;10.97;;;;;;;;;;10316487;28;20030;-77
2022/03/03 13:14:23;;;;;;;23.38;13.40;;;;;;;;;;10295718;28;20269;-73
2022/03/03 13:19:24;;;;;;;18.70;12.18;;;;;;;;;;10388760;28;20061;-79
2022/03/03 13:24:24;;;;;;;19.43;11.50;;;;;;;;;;10315829;28;20060;-75
2022/03/03 13:29:25;;;;;;;18.05;10.57;;;;;;;;;;10319446;28;20109;-77
2022/03/03 13:34:26;;;;;;;20.75;10.40;;;;;;;;;;10281723;28;20030;-75
2022/03/03 13:39:33;;;;;;;16.55;10.90;;;;;;;;;;10274879;28;20023;-77
2022/03/03 13:44:34;;;;;;;21.58;11.52;;;;;;;;;;10275018;28;20141;-74
2022/03/03 13:49:34;;;;;;;25.63;11.45;;;;;;;;;;10275500;28;20023;-77
2022/03/03 13:54:56;;;;;;;20.52;12.95;;;;;;;;;;10303781;28;20019;-77
2022/03/03 13:59:57;;;;;;;23.27;12.90;;;;;;;;;;10295157;28;20023;-76
2022/03/03 14:05:02;;;;;;;24.88;12.15;;;;;;;;;;10315473;28;20030;-76
2022/03/03 14:10:04;;;;;;;19.30;12.32;;;;;;;;;;10315736;28;20022;-78
2022/03/03 14:15:05;;;;;;;20.98;11.90;;;;;;;;;;10295769;28;20499;-76
2022/03/03 14:20:05;;;;;;;26.60;13.82;;;;;;;;;;10274853;28;20138;-75
2022/03/03 14:25:06;;;;;;;25.00;13.25;;;;;;;;;;10304055;28;20018;-76
2022/03/03 14:30:06;;;;;;;22.55;12.23;;;;;;;;;;10322150;28;20018;-76
2022/03/03 14:35:08;;;;;;;21.17;13.30;;;;;;;;;;10347934;28;20023;-77
2022/03/03 14:40:09;;;;;;;25.92;14.50;;;;;;;;;;10278403;28;20034;-77
2022/03/03 14:45:11;;;;;;;28.52;13.65;;;;;;;;;;10307106;28;20026;-75
2022/03/03 14:50:13;;;;;;;19.48;12.15;;;;;;;;;;10311478;28;20030;-72
2022/03/03 14:55:15;;;;;;;22.83;12.25;;;;;;;;;;10281853;28;20520;-78
2022/03/03 15:00:16;;;;;;;22.08;13.30;;;;;;;;;;10278964;28;20033;-77
2022/03/03 15:05:17;;;;;;;21.45;12.00;;;;;;;;;;10320731;28;20029;-79
2022/03/03 15:10:17;;;;;;;18.50;11.20;;;;;;;;;;10320275;28;20494;-77
2022/03/03 15:15:18;;;;;;;25.88;12.25;;;;;;;;;;10319494;28;20022;-77
2022/03/03 15:20:18;;;;;;;18.77;11.17;;;;;;;;;;10320114;28;20418;-78
2022/03/03 15:25:19;;;;;;;18.63;11.02;;;;;;;;;;10328551;28;20035;-73
2022/03/03 15:30:20;;;;;;;23.85;11.45;;;;;;;;;;10480089;28;20122;-73
2022/03/03 15:40:40;;;;;;;17.67;10.48;;;;;;;;;;10280518;28;20026;-72
2022/03/03 15:45:40;;;;;;;21.50;10.95;;;;;;;;;;10278783;28;20018;-73
2022/03/03 15:50:41;;;;;;;21.80;11.17;;;;;;;;;;10303405;28;20026;-73
2022/03/03 15:55:41;;;;;;;20.58;12.27;;;;;;;;;;10318283;28;20018;-73
2022/03/03 16:00:41;;;;;;;22.63;10.43;;;;;;;;;;10318414;28;20523;-73
2022/03/03 16:05:41;;;;;;;21.05;11.25;;;;;;;;;;10318262;28;20018;-73
2022/03/03 16:10:42;;;;;;;21.10;11.35;;;;;;;;;;10328968;28;20521;-76
2022/03/03 16:15:43;;;;;;;23.17;10.70;;;;;;;;;;10317659;28;20047;-76
2022/03/03 16:20:43;;;;;;;19.05;10.68;;;;;;;;;;10317591;28;20556;-75
2022/03/03 16:25:43;;;;;;;20.43;12.37;;;;;;;;;;10317856;28;20052;-76
2022/03/03 16:30:44;;;;;;;18.90;11.00;;;;;;;;;;10321458;28;20022;-77
2022/03/03 16:35:44;;;;;;;21.02;12.20;;;;;;;;;;10357618;28;20352;-71
2022/03/03 16:40:44;;;;;;;26.50;12.10;;;;;;;;;;10359475;28;20022;-72
2022/03/03 16:45:46;;;;;;;21.63;11.50;;;;;;;;;;10357262;28;20283;-73
2022/03/03 16:50:48;;;;;;;27.15;12.43;;;;;;;;;;10367863;28;20788;-73
2022/03/03 16:55:48;;;;;;;21.65;11.32;;;;;;;;;;10366321;28;20120;-74
2022/03/03 17:00:49;;;;;;;18.48;10.25;;;;;;;;;;10275899;28;20564;-72
2022/03/03 17:05:51;;;;;;;18.53;10.80;;;;;;;;;;10278351;28;20192;-73
2022/03/03 17:10:54;;;;;;;20.55;10.65;;;;;;;;;;10313911;28;20034;-76
2022/03/03 17:15:54;;;;;;;20.75;11.13;;;;;;;;;;10316054;28;20517;-75
2022/03/03 17:20:55;;;;;;;28.48;13.10;;;;;;;;;;10315581;28;20026;-71
2022/03/03 17:25:55;;;;;;;19.90;10.73;;;;;;;;;;10317594;28;20026;-71
2022/03/03 17:30:55;;;;;;;23.33;11.47;;;;;;;;;;10331352;28;20141;-77
2022/03/03 17:35:56;;;;;;;21.17;10.57;;;;;;;;;;10408439;28;20537;-73
2022/03/03 17:40:57;;;;;;;20.77;11.97;;;;;;;;;;10275701;28;20280;-72
2022/03/03 17:45:58;;;;;;;21.80;12.10;;;;;;;;;;10275753;28;20027;-76
2022/03/03 17:50:59;;;;;;;28.25;13.65;;;;;;;;;;10274760;28;20031;-73
2022/03/03 17:55:59;;;;;;;22.05;13.07;;;;;;;;;;10275401;28;20033;-73
2022/03/03 18:01:00;;;;;;;24.73;12.60;;;;;;;;;;10308992;28;20030;-72
2022/03/03 18:06:00;;;;;;;22.92;12.50;;;;;;;;;;10279525;28;20494;-73
2022/03/03 18:11:01;;;;;;;21.33;13.00;;;;;;;;;;10296253;28;20022;-73
2022/03/03 18:16:01;;;;;;;20.95;12.27;;;;;;;;;;10326161;28;20050;-72
2022/03/03 18:21:02;;;;;;;25.47;13.07;;;;;;;;;;10351226;23;20023;-70
2022/03/03 18:26:02;;;;;;;23.77;11.70;;;;;;;;;;10255888;28;20055;-72
2022/03/03 18:31:03;;;;;;;26.50;11.90;;;;;;;;;;10255689;28;20031;-77
2022/03/03 18:36:06;;;;;;;24.17;12.05;;;;;;;;;;10185181;28;20036;-76
2022/03/03 18:41:06;;;;;;;23.60;12.68;;;;;;;;;;10187249;28;20031;-71
2022/03/03 18:46:06;;;;;;;24.42;12.73;;;;;;;;;;10200908;28;20027;-73
2022/03/03 18:51:07;;;;;;;25.48;13.07;;;;;;;;;;10200498;28;20067;-77
2022/03/03 18:56:07;;;;;;;20.63;10.20;;;;;;;;;;10201459;28;20085;-76
2022/03/03 19:01:07;;;;;;;18.88;9.57;;;;;;;;;;10188131;28;20267;-78
2022/03/03 19:06:08;;;;;;;19.73;11.13;;;;;;;;;;10201477;28;20040;-72
2022/03/03 19:11:08;;;;;;;20.15;11.30;;;;;;;;;;10183936;29;20107;-75
2022/03/03 19:16:08;;;;;;;31.17;12.77;;;;;;;;;;10161936;28;20559;-77
2022/03/03 19:21:09;;;;;;;23.10;13.03;;;;;;;;;;10161235;28;20039;-77
2022/03/03 19:26:10;;;;;;;24.98;12.13;;;;;;;;;;10195329;29;20712;-76
2022/03/03 19:31:11;;;;;;;28.67;14.43;;;;;;;;;;10216644;28;20419;-77
2022/03/03 19:36:12;;;;;;;25.30;13.07;;;;;;;;;;10178537;29;20488;-79
2022/03/03 19:41:12;;;;;;;31.55;15.40;;;;;;;;;;10161063;28;20035;-77
2022/03/03 19:46:13;;;;;;;33.17;15.23;;;;;;;;;;10198244;29;20024;-80
2022/03/03 19:51:13;;;;;;;39.93;18.03;;;;;;;;;;10197923;28;20565;-74
2022/03/03 19:56:14;;;;;;;26.63;16.15;;;;;;;;;;10199275;29;20028;-75
2022/03/03 20:01:14;;;;;;;46.07;18.57;;;;;;;;;;10199729;28;20027;-75
2022/03/03 20:06:14;;;;;;;52.28;19.30;;;;;;;;;;10200085;29;20806;-73
2022/03/03 20:11:15;;;;;;;43.10;22.15;;;;;;;;;;10199457;29;20400;-78
2022/03/03 20:16:15;;;;;;;51.10;25.40;;;;;;;;;;10199060;28;20521;-73
2022/03/03 20:21:15;;;;;;;46.50;25.77;;;;;;;;;;10198476;29;20500;-77
2022/03/03 20:26:16;;;;;;;44.95;23.23;;;;;;;;;;10198357;28;20020;-74
2022/03/03 20:31:16;;;;;;;48.47;22.67;;;;;;;;;;10196585;29;20385;-72
2022/03/03 20:36:16;;;;;;;39.00;19.58;;;;;;;;;;10158484;29;20031;-75
2022/03/03 20:41:17;;;;;;;33.10;16.83;;;;;;;;;;10159457;28;20032;-77
2022/03/03 20:46:20;;;;;;;33.92;17.27;;;;;;;;;;10174861;29;20034;-78
2022/03/03 20:51:20;;;;;;;35.30;17.00;;;;;;;;;;10193534;29;20016;-78
2022/03/03 20:56:21;;;;;;;34.03;17.40;;;;;;;;;;10197299;28;20030;-77
2022/03/03 21:01:21;;;;;;;34.17;17.33;;;;;;;;;;10211730;29;20019;-73
2022/03/03 21:06:21;;;;;;;29.33;17.05;;;;;;;;;;10197068;28;20034;-73
2022/03/03 21:11:23;;;;;;;31.38;16.20;;;;;;;;;;10196167;28;20049;-73
2022/03/03 21:16:25;;;;;;;34.58;14.95;;;;;;;;;;10196886;29;20119;-73
2022/03/03 21:21:26;;;;;;;27.67;14.63;;;;;;;;;;10197049;29;20102;-73
2022/03/03 21:26:26;;;;;;;34.67;15.82;;;;;;;;;;10197188;29;20081;-73
2022/03/03 21:31:27;;;;;;;25.30;14.63;;;;;;;;;;10215322;29;20460;-73
2022/03/03 21:36:28;;;;;;;38.05;15.55;;;;;;;;;;10236650;29;20036;-73
2022/03/03 21:41:29;;;;;;;23.02;14.25;;;;;;;;;;10236298;29;20031;-75
2022/03/03 21:46:29;;;;;;;30.37;14.00;;;;;;;;;;10205235;29;20391;-75
2022/03/03 21:51:29;;;;;;;26.00;14.73;;;;;;;;;;10204127;28;20856;-78
2022/03/03 21:56:30;;;;;;;22.40;14.37;;;;;;;;;;10202882;29;20086;-72
2022/03/03 22:01:31;;;;;;;21.50;13.37;;;;;;;;;;10203232;29;20028;-75
2022/03/03 22:06:31;;;;;;;31.48;15.48;;;;;;;;;;10202697;29;20275;-76
2022/03/03 22:11:32;;;;;;;26.30;15.27;;;;;;;;;;10202404;29;20036;-73
2022/03/03 22:16:33;;;;;;;26.95;15.50;;;;;;;;;;10203765;29;20513;-78
2022/03/03 22:21:36;;;;;;;20.30;11.55;;;;;;;;;;10203424;29;20075;-72
2022/03/03 22:26:37;;;;;;;24.92;13.88;;;;;;;;;;10187992;29;20035;-78
2022/03/03 22:31:37;;;;;;;24.00;14.18;;;;;;;;;;10203437;29;20027;-74
2022/03/03 22:36:38;;;;;;;27.83;17.10;;;;;;;;;;10202707;28;20119;-73
2022/03/03 22:41:38;;;;;;;25.50;14.57;;;;;;;;;;10202924;28;20028;-71
2022/03/03 22:46:38;;;;;;;21.67;13.82;;;;;;;;;;10202700;28;20528;-76
2022/03/03 22:56:58;;;;;;;29.83;15.55;;;;;;;;;;10182287;29;20500;-74
2022/03/03 23:01:59;;;;;;;24.15;15.18;;;;;;;;;;10178314;29;20020;-73
2022/03/03 23:07:17;;;;;;;27.58;13.35;;;;;;;;;;10178510;29;20452;-73
2022/03/03 23:12:19;;;;;;;23.42;12.13;;;;;;;;;;10177961;28;20043;-73
2022/03/03 23:17:19;;;;;;;24.30;12.65;;;;;;;;;;10178318;29;20028;-73
2022/03/03 23:22:20;;;;;;;20.48;12.90;;;;;;;;;;10162427;29;20056;-74
2022/03/03 23:27:20;;;;;;;22.88;14.07;;;;;;;;;;10161845;29;20039;-75
2022/03/03 23:32:20;;;;;;;33.97;17.70;;;;;;;;;;10177522;29;20032;-74
2022/03/03 23:37:21;;;;;;;30.50;16.08;;;;;;;;;;10177826;29;20031;-74
2022/03/03 23:42:21;;;;;;;28.42;16.35;;;;;;;;;;10162018;29;20571;-73
2022/03/03 23:47:22;;;;;;;30.33;15.52;;;;;;;;;;10177105;29;20122;-74
2022/03/03 23:52:22;;;;;;;32.83;17.48;;;;;;;;;;10161342;29;20071;-73
2022/03/03 23:57:22;;;;;;;40.35;17.83;;;;;;;;;;10176940;28;20028;-74
